Baross — HGBS — position and weather

sailwx.info

Track history (hours):
 
Tides and Currents Weather Stations Pressure Air Temp Water Temp Dewpoint Dewpoint Depression Visibility Wind Speed Wind Dir Waves Ship Positions

Baross

Last reported at 2018-Apr-15 07:22 UTC. Time now 2018-Apr-19 23:32 UTC.
Position N 47°45' E 017°48'.

Length 90 m; draft 2.1 m.

Type: Ship. MMSI: 243070219.

Date/timePositionNaut miles runAvg speedWind from/ knotsBaromVisibWave heightAir tempDewpointWater temp
2018-Apr-15 07:22N 47°45' E 017°48'1 1.8
2018-Apr-15 06:59N 47°44' E 017°47'0 0.5
2018-Apr-15 06:30N 47°44' E 017°47'0 0.7
2018-Apr-15 06:00N 47°44' E 017°47'4 8.9
2018-Apr-15 05:30N 47°47' E 017°41'5 9.3
2018-Apr-15 05:00N 47°50' E 017°36'4 7.8
2018-Apr-15 04:30N 47°53' E 017°33'0 0.9
2018-Apr-15 04:01N 47°53' E 017°32'1 1.8
2018-Apr-15 03:31N 47°54' E 017°31'3 6.5
2018-Apr-15 03:00N 47°56' E 017°28'3 6.7
2018-Apr-15 02:31N 47°58' E 017°24'3 6.4
2018-Apr-15 02:01N 48°00' E 017°20'3 5.9
2018-Apr-15 01:31N 48°01' E 017°16'4 7.1
2018-Apr-15 01:00N 48°03' E 017°12'4 7.7
2018-Apr-15 00:31N 48°06' E 017°08'3 6.6
2018-Apr-15 00:01N 48°09' E 017°05'4 9.0
2018-Apr-14 23:31N 48°10' E 016°59'5 9.1
2018-Apr-14 23:00N 48°08' E 016°53'5 9.5
2018-Apr-14 22:30N 48°07' E 016°46'5 9.5
2018-Apr-14 22:00N 48°08' E 016°38'5 9.4
2018-Apr-14 21:30N 48°09' E 016°32'2 4.9
2018-Apr-14 21:00N 48°11' E 016°29'0 0.0
2018-Apr-14 20:28N 48°11' E 016°29'0 0.0
2018-Apr-14 19:59N 48°11' E 016°29'1 2.2
2018-Apr-14 19:30N 48°11' E 016°28'4 7.1
2018-Apr-14 19:00N 48°14' E 016°24'4 7.8
2018-Apr-14 18:30N 48°17' E 016°21'4 8.4
2018-Apr-14 18:00N 48°21' E 016°18'  
Track history (hours):
 
Tides and Currents Weather Stations Pressure Air Temp Water Temp Dewpoint Dewpoint Depression Visibility Wind Speed Wind Dir Waves Ship Positions

Baross

Last reported at 2018-Apr-15 07:22 UTC. Time now 2018-Apr-19 23:32 UTC.
Position N 47°45' E 017°48'.

Length 90 m; draft 2.1 m.

Type: Ship. MMSI: 243070219.

Date/timePositionNaut miles runAvg speedWind from/ knotsBaromVisibWave heightAir tempDewpointWater temp
2018-Apr-15 07:22N 47°45' E 017°48'1 1.8
2018-Apr-15 06:59N 47°44' E 017°47'0 0.5
2018-Apr-15 06:30N 47°44' E 017°47'0 0.7
2018-Apr-15 06:00N 47°44' E 017°47'4 8.9
2018-Apr-15 05:30N 47°47' E 017°41'5 9.3
2018-Apr-15 05:00N 47°50' E 017°36'4 7.8
2018-Apr-15 04:30N 47°53' E 017°33'0 0.9
2018-Apr-15 04:01N 47°53' E 017°32'1 1.8
2018-Apr-15 03:31N 47°54' E 017°31'3 6.5
2018-Apr-15 03:00N 47°56' E 017°28'3 6.7
2018-Apr-15 02:31N 47°58' E 017°24'3 6.4
2018-Apr-15 02:01N 48°00' E 017°20'3 5.9
2018-Apr-15 01:31N 48°01' E 017°16'4 7.1
2018-Apr-15 01:00N 48°03' E 017°12'4 7.7
2018-Apr-15 00:31N 48°06' E 017°08'3 6.6
2018-Apr-15 00:01N 48°09' E 017°05'4 9.0
2018-Apr-14 23:31N 48°10' E 016°59'5 9.1
2018-Apr-14 23:00N 48°08' E 016°53'5 9.5
2018-Apr-14 22:30N 48°07' E 016°46'5 9.5
2018-Apr-14 22:00N 48°08' E 016°38'5 9.4
2018-Apr-14 21:30N 48°09' E 016°32'2 4.9
2018-Apr-14 21:00N 48°11' E 016°29'0 0.0
2018-Apr-14 20:28N 48°11' E 016°29'0 0.0
2018-Apr-14 19:59N 48°11' E 016°29'1 2.2
2018-Apr-14 19:30N 48°11' E 016°28'4 7.1
2018-Apr-14 19:00N 48°14' E 016°24'4 7.8
2018-Apr-14 18:30N 48°17' E 016°21'4 8.4
2018-Apr-14 18:00N 48°21' E 016°18'  

Dump ship's entire track history